LQSA/SJJ METAR and TAF weather

Enter ICAO airport designator
Station Type Date Time Source
LQSA METAR 2021/05/14 12:30 UTC NOAA

LQSA 141230Z 13011KT 080V150 9999 FEW055 17/07 Q1011 WS ALL RWY NOSIG


Station Type Date Time Source
LQSA Decoded METAR 2021/05/14 12:30 UTC NOAA

Sarajevo, Bosnia and Herzegovina (LQSA) 43-49N 018-20E 510M
May 14, 2021 - 08:30 AM EDT / 2021.05.14 1230 UTC
Wind: from the SE (130 degrees) at 13 MPH (11 KT) (direction variable):0
Visibility: greater than 7 mile(s):0
Sky conditions: mostly clear
Temperature: 62 F (17 C)
Dew Point: 44 F (7 C)
Relative Humidity: 51%
Pressure (altimeter): 29.85 in. Hg (1011 hPa)
ob: LQSA 141230Z 13011KT 080V150 9999 FEW055 17/07 Q1011 WS ALL RWY NOSIG
cycle: 12

Station Type Date Time Source
LQSA TAF 2021/05/14 12:06 UTC NOAA

TAF TAF COR LQSA 141103Z 1412/1512 17005KT 9999 SCT050 TX18/1414Z TN07/1503Z PROB40
TEMPO 1412/1417 14015KT TSRA FEW018 FEW030CB BKN040
TEMPO 1500/1508 4000 RA BKN013 OVC035 PROB30
TEMPO 1508/1512 VRB10KT SHRA FEW035TCU BKN045

Example: see airport list